Mt Bomar Mars — 9HCM9 — position and weather

sailwx.info

Track history (hours):
 
Tides and Currents Weather Stations Pressure Air Temp Water Temp Dewpoint Dewpoint Depression Visibility Wind Speed Wind Dir Waves Ship Positions

Mt Bomar Mars

Last reported at 2015-Mar-01 20:11 UTC. Time now 2015-Mar-01 20:55 UTC.
Position N 51°05' E 001°52'.

Length 107 m; draft 5.3 m.

Type: Ship. MMSI: 256784000.

Date/timePositionNaut miles runAvg speedWind from/ knotsBaromVisibWave heightAir tempDewpointWater temp
2015-Mar-01 20:11N 51°05' E 001°52'3 1.5
2015-Mar-01 18:18N 51°04' E 001°48'7 9.8
2015-Mar-01 17:33N 51°10' E 001°42'1413.8
2015-Mar-01 16:34N 51°22' E 001°53'19110.0
2015-Feb-28 21:34N 54°25' E 000°23'1211.4
2015-Feb-28 20:33N 54°31' E 000°06'1111.4
2015-Feb-28 19:34N 54°37' W 000°11'1211.7
2015-Feb-28 18:33N 54°43' W 000°29'1211.6
2015-Feb-28 17:33N 54°46' W 000°48'17 3.9
2015-Feb-28 13:15N 54°36' W 001°11'0 0.0
2015-Feb-28 12:30N 54°36' W 001°11'0 0.0
2015-Feb-28 11:30N 54°36' W 001°11'0 0.0
2015-Feb-28 10:33N 54°36' W 001°11'0 0.0
2015-Feb-28 09:18N 54°36' W 001°11'0 0.0
2015-Feb-28 08:18N 54°36' W 001°11'6 0.6
2015-Feb-27 21:33N 54°41' W 001°04'1 1.4
2015-Feb-27 20:32N 54°40' W 001°02'0 0.1
2015-Feb-27 19:32N 54°40' W 001°02'0 0.0
2015-Feb-27 18:32N 54°40' W 001°02'0 0.0
2015-Feb-27 17:22N 54°40' W 001°02'0 0.4
2015-Feb-27 16:34N 54°40' W 001°01'1110.5
2015-Feb-27 15:30N 54°38' W 000°42'1212.3
2015-Feb-27 14:33N 54°34' W 000°23'1212.0
2015-Feb-27 13:34N 54°29' W 000°05'1211.7
2015-Feb-27 12:34N 54°23' E 000°13'1111.3
2015-Feb-27 11:33N 54°18' E 000°30'17111.0
2015-Feb-26 20:04N 52°08' E 003°35'611.2
2015-Feb-26 19:32N 52°05' E 003°44'9 9.5
2015-Feb-26 18:33N 52°01' E 003°58'1110.7
2015-Feb-26 17:33N 51°56' E 004°13'5 4.6
2015-Feb-26 16:29N 51°53' E 004°19'0 0.0
2015-Feb-26 15:26N 51°53' E 004°19'0 0.0
2015-Feb-26 14:26N 51°53' E 004°19'0 0.0
2015-Feb-26 13:14N 51°53' E 004°19'0 0.0
2015-Feb-26 11:11N 51°53' E 004°19'0 0.0
2015-Feb-26 10:29N 51°53' E 004°19'0 0.0
2015-Feb-26 09:29N 51°53' E 004°19'0 0.0
2015-Feb-26 07:23N 51°53' E 004°19'0 0.0
2015-Feb-26 06:32N 51°53' E 004°19'0 0.0
2015-Feb-26 05:20N 51°53' E 004°19'0 0.0
2015-Feb-26 04:23N 51°53' E 004°19'0 0.0
2015-Feb-26 03:17N 51°53' E 004°19'0 0.0
2015-Feb-26 02:05N 51°53' E 004°19'0 0.0
2015-Feb-26 01:32N 51°53' E 004°19'0 0.0
2015-Feb-26 00:20N 51°53' E 004°19'0 0.0
2015-Feb-25 23:26N 51°53' E 004°19'0 0.0
2015-Feb-25 22:32N 51°53' E 004°19'0 0.0
2015-Feb-25 21:11N 51°53' E 004°19'0 0.0
2015-Feb-25 20:14N 51°53' E 004°19'0 0.0
2015-Feb-25 18:26N 51°53' E 004°19'0 0.0
2015-Feb-25 17:11N 51°53' E 004°19'0 0.0
2015-Feb-25 16:32N 51°53' E 004°19'0 0.0
2015-Feb-25 15:20N 51°53' E 004°19'0 0.0
2015-Feb-25 14:26N 51°53' E 004°19'0 0.2
2015-Feb-25 12:33N 51°53' E 004°18'1 0.2
2015-Feb-25 10:05N 51°53' E 004°18'0 0.0
2015-Feb-25 07:29N 51°53' E 004°18'0 0.0
2015-Feb-25 06:29N 51°53' E 004°18'0 0.0
2015-Feb-25 02:23N 51°53' E 004°18'0 0.0
2015-Feb-24 20:23N 51°53' E 004°18'0 0.0
2015-Feb-24 18:05N 51°53' E 004°18'0 0.0
2015-Feb-24 11:23N 51°53' E 004°18'0 0.0
2015-Feb-24 09:29N 51°53' E 004°18'0 0.0
2015-Feb-24 07:17N 51°53' E 004°18'0 0.0
2015-Feb-24 06:29N 51°53' E 004°18'0 0.0
2015-Feb-24 05:29N 51°53' E 004°18'0 0.0
2015-Feb-24 04:32N 51°53' E 004°18'0 0.0
2015-Feb-24 03:23N 51°53' E 004°18'0 0.0
2015-Feb-24 02:29N 51°53' E 004°18'0 0.0
2015-Feb-23 23:17N 51°53' E 004°18'0 0.0
2015-Feb-23 22:23N 51°53' E 004°18'0 0.0
2015-Feb-23 19:29N 51°53' E 004°18'0 0.0
2015-Feb-23 18:29N 51°53' E 004°18'0 0.0
2015-Feb-23 16:23N 51°53' E 004°18'0 0.0
2015-Feb-23 11:11N 51°53' E 004°18'0 0.0
2015-Feb-23 10:17N 51°53' E 004°18'0 0.0
2015-Feb-23 09:14N 51°53' E 004°18'0 0.0
2015-Feb-23 06:17N 51°53' E 004°18'0 0.0
2015-Feb-23 05:29N 51°53' E 004°18'0 0.0
2015-Feb-23 04:33N 51°53' E 004°18'0 0.0
2015-Feb-23 03:33N 51°53' E 004°18'0 0.0
2015-Feb-23 02:33N 51°53' E 004°18'0 0.0
2015-Feb-23 01:33N 51°53' E 004°18'0 0.0
2015-Feb-23 00:33N 51°53' E 004°18'0 0.0
2015-Feb-22 23:33N 51°53' E 004°18'0 0.0
2015-Feb-22 22:33N 51°53' E 004°18'0 0.0
2015-Feb-22 21:33N 51°53' E 004°18'0 0.0
2015-Feb-22 20:33N 51°53' E 004°18'0 0.0
2015-Feb-22 19:33N 51°53' E 004°18'0 0.0
2015-Feb-22 18:33N 51°53' E 004°18'0 0.0
2015-Feb-22 17:33N 51°53' E 004°18'0 0.0
2015-Feb-22 16:33N 51°53' E 004°18'0 0.0
2015-Feb-22 15:33N 51°53' E 004°18'0 0.0
2015-Feb-22 14:33N 51°53' E 004°18'0 0.0
2015-Feb-22 13:33N 51°53' E 004°18'0 0.0
2015-Feb-22 12:33N 51°53' E 004°18'0 0.0
2015-Feb-22 11:33N 51°53' E 004°18'0 0.0
2015-Feb-22 10:33N 51°53' E 004°18'0 0.0
2015-Feb-22 09:33N 51°53' E 004°18'3 3.2
2015-Feb-22 08:33N 51°55' E 004°14'9 9.3
2015-Feb-22 07:33N 51°60' E 004°01'1111.2
2015-Feb-22 06:33N 52°02' E 003°43'30 2.5
2015-Feb-21 18:29N 51°35' E 003°24'1212.9
2015-Feb-21 17:34N 51°26' E 003°37'1110.9
2015-Feb-21 16:33N 51°21' E 003°52'7 6.8
2015-Feb-21 15:34N 51°23' E 004°03'8 7.6
2015-Feb-21 14:33N 51°21' E 004°15'5 5.4
2015-Feb-21 13:34N 51°17' E 004°20'2 2.1
2015-Feb-21 12:32N 51°19' E 004°19'0 0.3
2015-Feb-21 11:22N 51°19' E 004°19'0 0.0
2015-Feb-21 10:31N 51°19' E 004°19'0 0.0
2015-Feb-21 08:31N 51°19' E 004°19'0 0.0
2015-Feb-21 07:07N 51°19' E 004°19'0 0.0
2015-Feb-21 06:31N 51°19' E 004°19'0 0.0
2015-Feb-21 05:31N 51°19' E 004°19'0 0.0
2015-Feb-21 04:25N 51°19' E 004°19'0 0.0
2015-Feb-21 03:13N 51°19' E 004°19'0 0.0
2015-Feb-21 02:31N 51°19' E 004°19'0 0.0
2015-Feb-21 01:31N 51°19' E 004°19'0 0.0
2015-Feb-21 00:28N 51°19' E 004°19'0 0.0
2015-Feb-20 23:31N 51°19' E 004°19'0 0.0
2015-Feb-20 22:31N 51°19' E 004°19'0 0.0
2015-Feb-20 21:31N 51°19' E 004°19'0 0.0
2015-Feb-20 19:31N 51°19' E 004°19'0 0.0
2015-Feb-20 18:25N 51°19' E 004°19'0 0.0
2015-Feb-20 16:31N 51°19' E 004°19'0 0.0
2015-Feb-20 15:13N 51°19' E 004°19'0 0.0
2015-Feb-20 11:19N 51°19' E 004°19'1 1.5
2015-Feb-20 10:33N 51°18' E 004°20'1 0.5
2015-Feb-20 09:27N 51°17' E 004°20'0 0.0
2015-Feb-20 08:06N 51°17' E 004°20'0 0.0
2015-Feb-20 03:10N 51°17' E 004°20'0 0.0
2015-Feb-20 02:33N 51°17' E 004°20'0 0.0
2015-Feb-20 01:33N 51°17' E 004°20'0 0.0
2015-Feb-20 00:33N 51°17' E 004°20'0 0.2
2015-Feb-19 23:33N 51°18' E 004°20'1 1.0
2015-Feb-19 22:34N 51°17' E 004°20'2 1.8
2015-Feb-19 21:34N 51°18' E 004°18'7 7.3
2015-Feb-19 20:33N 51°23' E 004°09'  
Track history (hours):
 
Tides and Currents Weather Stations Pressure Air Temp Water Temp Dewpoint Dewpoint Depression Visibility Wind Speed Wind Dir Waves Ship Positions

Mt Bomar Mars

Last reported at 2015-Mar-01 20:11 UTC. Time now 2015-Mar-01 20:55 UTC.
Position N 51°05' E 001°52'.

Length 107 m; draft 5.3 m.

Type: Ship. MMSI: 256784000.

Date/timePositionNaut miles runAvg speedWind from/ knotsBaromVisibWave heightAir tempDewpointWater temp
2015-Mar-01 20:11N 51°05' E 001°52'3 1.5
2015-Mar-01 18:18N 51°04' E 001°48'7 9.8
2015-Mar-01 17:33N 51°10' E 001°42'1413.8
2015-Mar-01 16:34N 51°22' E 001°53'19110.0
2015-Feb-28 21:34N 54°25' E 000°23'1211.4
2015-Feb-28 20:33N 54°31' E 000°06'1111.4
2015-Feb-28 19:34N 54°37' W 000°11'1211.7
2015-Feb-28 18:33N 54°43' W 000°29'1211.6
2015-Feb-28 17:33N 54°46' W 000°48'17 3.9
2015-Feb-28 13:15N 54°36' W 001°11'0 0.0
2015-Feb-28 12:30N 54°36' W 001°11'0 0.0
2015-Feb-28 11:30N 54°36' W 001°11'0 0.0
2015-Feb-28 10:33N 54°36' W 001°11'0 0.0
2015-Feb-28 09:18N 54°36' W 001°11'0 0.0
2015-Feb-28 08:18N 54°36' W 001°11'6 0.6
2015-Feb-27 21:33N 54°41' W 001°04'1 1.4
2015-Feb-27 20:32N 54°40' W 001°02'0 0.1
2015-Feb-27 19:32N 54°40' W 001°02'0 0.0
2015-Feb-27 18:32N 54°40' W 001°02'0 0.0
2015-Feb-27 17:22N 54°40' W 001°02'0 0.4
2015-Feb-27 16:34N 54°40' W 001°01'1110.5
2015-Feb-27 15:30N 54°38' W 000°42'1212.3
2015-Feb-27 14:33N 54°34' W 000°23'1212.0
2015-Feb-27 13:34N 54°29' W 000°05'1211.7
2015-Feb-27 12:34N 54°23' E 000°13'1111.3
2015-Feb-27 11:33N 54°18' E 000°30'17111.0
2015-Feb-26 20:04N 52°08' E 003°35'611.2
2015-Feb-26 19:32N 52°05' E 003°44'9 9.5
2015-Feb-26 18:33N 52°01' E 003°58'1110.7
2015-Feb-26 17:33N 51°56' E 004°13'5 4.6
2015-Feb-26 16:29N 51°53' E 004°19'0 0.0
2015-Feb-26 15:26N 51°53' E 004°19'0 0.0
2015-Feb-26 14:26N 51°53' E 004°19'0 0.0
2015-Feb-26 13:14N 51°53' E 004°19'0 0.0
2015-Feb-26 11:11N 51°53' E 004°19'0 0.0
2015-Feb-26 10:29N 51°53' E 004°19'0 0.0
2015-Feb-26 09:29N 51°53' E 004°19'0 0.0
2015-Feb-26 07:23N 51°53' E 004°19'0 0.0
2015-Feb-26 06:32N 51°53' E 004°19'0 0.0
2015-Feb-26 05:20N 51°53' E 004°19'0 0.0
2015-Feb-26 04:23N 51°53' E 004°19'0 0.0
2015-Feb-26 03:17N 51°53' E 004°19'0 0.0
2015-Feb-26 02:05N 51°53' E 004°19'0 0.0
2015-Feb-26 01:32N 51°53' E 004°19'0 0.0
2015-Feb-26 00:20N 51°53' E 004°19'0 0.0
2015-Feb-25 23:26N 51°53' E 004°19'0 0.0
2015-Feb-25 22:32N 51°53' E 004°19'0 0.0
2015-Feb-25 21:11N 51°53' E 004°19'0 0.0
2015-Feb-25 20:14N 51°53' E 004°19'0 0.0
2015-Feb-25 18:26N 51°53' E 004°19'0 0.0
2015-Feb-25 17:11N 51°53' E 004°19'0 0.0
2015-Feb-25 16:32N 51°53' E 004°19'0 0.0
2015-Feb-25 15:20N 51°53' E 004°19'0 0.0
2015-Feb-25 14:26N 51°53' E 004°19'0 0.2
2015-Feb-25 12:33N 51°53' E 004°18'1 0.2
2015-Feb-25 10:05N 51°53' E 004°18'0 0.0
2015-Feb-25 07:29N 51°53' E 004°18'0 0.0
2015-Feb-25 06:29N 51°53' E 004°18'0 0.0
2015-Feb-25 02:23N 51°53' E 004°18'0 0.0
2015-Feb-24 20:23N 51°53' E 004°18'0 0.0
2015-Feb-24 18:05N 51°53' E 004°18'0 0.0
2015-Feb-24 11:23N 51°53' E 004°18'0 0.0
2015-Feb-24 09:29N 51°53' E 004°18'0 0.0
2015-Feb-24 07:17N 51°53' E 004°18'0 0.0
2015-Feb-24 06:29N 51°53' E 004°18'0 0.0
2015-Feb-24 05:29N 51°53' E 004°18'0 0.0
2015-Feb-24 04:32N 51°53' E 004°18'0 0.0
2015-Feb-24 03:23N 51°53' E 004°18'0 0.0
2015-Feb-24 02:29N 51°53' E 004°18'0 0.0
2015-Feb-23 23:17N 51°53' E 004°18'0 0.0
2015-Feb-23 22:23N 51°53' E 004°18'0 0.0
2015-Feb-23 19:29N 51°53' E 004°18'0 0.0
2015-Feb-23 18:29N 51°53' E 004°18'0 0.0
2015-Feb-23 16:23N 51°53' E 004°18'0 0.0
2015-Feb-23 11:11N 51°53' E 004°18'0 0.0
2015-Feb-23 10:17N 51°53' E 004°18'0 0.0
2015-Feb-23 09:14N 51°53' E 004°18'0 0.0
2015-Feb-23 06:17N 51°53' E 004°18'0 0.0
2015-Feb-23 05:29N 51°53' E 004°18'0 0.0
2015-Feb-23 04:33N 51°53' E 004°18'0 0.0
2015-Feb-23 03:33N 51°53' E 004°18'0 0.0
2015-Feb-23 02:33N 51°53' E 004°18'0 0.0
2015-Feb-23 01:33N 51°53' E 004°18'0 0.0
2015-Feb-23 00:33N 51°53' E 004°18'0 0.0
2015-Feb-22 23:33N 51°53' E 004°18'0 0.0
2015-Feb-22 22:33N 51°53' E 004°18'0 0.0
2015-Feb-22 21:33N 51°53' E 004°18'0 0.0
2015-Feb-22 20:33N 51°53' E 004°18'0 0.0
2015-Feb-22 19:33N 51°53' E 004°18'0 0.0
2015-Feb-22 18:33N 51°53' E 004°18'0 0.0
2015-Feb-22 17:33N 51°53' E 004°18'0 0.0
2015-Feb-22 16:33N 51°53' E 004°18'0 0.0
2015-Feb-22 15:33N 51°53' E 004°18'0 0.0
2015-Feb-22 14:33N 51°53' E 004°18'0 0.0
2015-Feb-22 13:33N 51°53' E 004°18'0 0.0
2015-Feb-22 12:33N 51°53' E 004°18'0 0.0
2015-Feb-22 11:33N 51°53' E 004°18'0 0.0
2015-Feb-22 10:33N 51°53' E 004°18'0 0.0
2015-Feb-22 09:33N 51°53' E 004°18'3 3.2
2015-Feb-22 08:33N 51°55' E 004°14'9 9.3
2015-Feb-22 07:33N 51°60' E 004°01'1111.2
2015-Feb-22 06:33N 52°02' E 003°43'30 2.5
2015-Feb-21 18:29N 51°35' E 003°24'1212.9
2015-Feb-21 17:34N 51°26' E 003°37'1110.9
2015-Feb-21 16:33N 51°21' E 003°52'7 6.8
2015-Feb-21 15:34N 51°23' E 004°03'8 7.6
2015-Feb-21 14:33N 51°21' E 004°15'5 5.4
2015-Feb-21 13:34N 51°17' E 004°20'2 2.1
2015-Feb-21 12:32N 51°19' E 004°19'0 0.3
2015-Feb-21 11:22N 51°19' E 004°19'0 0.0
2015-Feb-21 10:31N 51°19' E 004°19'0 0.0
2015-Feb-21 08:31N 51°19' E 004°19'0 0.0
2015-Feb-21 07:07N 51°19' E 004°19'0 0.0
2015-Feb-21 06:31N 51°19' E 004°19'0 0.0
2015-Feb-21 05:31N 51°19' E 004°19'0 0.0
2015-Feb-21 04:25N 51°19' E 004°19'0 0.0
2015-Feb-21 03:13N 51°19' E 004°19'0 0.0
2015-Feb-21 02:31N 51°19' E 004°19'0 0.0
2015-Feb-21 01:31N 51°19' E 004°19'0 0.0
2015-Feb-21 00:28N 51°19' E 004°19'0 0.0
2015-Feb-20 23:31N 51°19' E 004°19'0 0.0
2015-Feb-20 22:31N 51°19' E 004°19'0 0.0
2015-Feb-20 21:31N 51°19' E 004°19'0 0.0
2015-Feb-20 19:31N 51°19' E 004°19'0 0.0
2015-Feb-20 18:25N 51°19' E 004°19'0 0.0
2015-Feb-20 16:31N 51°19' E 004°19'0 0.0
2015-Feb-20 15:13N 51°19' E 004°19'0 0.0
2015-Feb-20 11:19N 51°19' E 004°19'1 1.5
2015-Feb-20 10:33N 51°18' E 004°20'1 0.5
2015-Feb-20 09:27N 51°17' E 004°20'0 0.0
2015-Feb-20 08:06N 51°17' E 004°20'0 0.0
2015-Feb-20 03:10N 51°17' E 004°20'0 0.0
2015-Feb-20 02:33N 51°17' E 004°20'0 0.0
2015-Feb-20 01:33N 51°17' E 004°20'0 0.0
2015-Feb-20 00:33N 51°17' E 004°20'0 0.2
2015-Feb-19 23:33N 51°18' E 004°20'1 1.0
2015-Feb-19 22:34N 51°17' E 004°20'2 1.8
2015-Feb-19 21:34N 51°18' E 004°18'7 7.3
2015-Feb-19 20:33N 51°23' E 004°09'  

Dump ship's entire track history